Time;durP1;ratioP1;P1;durP2;ratioP2;P2;SDS_P1;SDS_P2;PMS_P1;PMS_P2;Temp;Humidity;BMP_temperature;BMP_pressure;BME280_temperature;BME280_humidity;BME280_pressure;Samples;Min_cycle;Max_cycle;Signal;HPM_P1;HPM_P2
2021/04/12 00:00:03;;;;;;;13.30;12.50;;;3.20;99.90;;;;;;5031565;28;20448;-70
2021/04/12 00:02:35;;;;;;;13.13;12.47;;;3.20;99.90;;;;;;5031512;28;20436;-70
2021/04/12 00:05:14;;;;;;;13.57;12.70;;;3.20;99.90;;;;;;5031388;28;20441;-70
2021/04/12 00:07:45;;;;;;;12.80;12.20;;;3.20;99.90;;;;;;5031529;28;20527;-70
2021/04/12 00:10:17;;;;;;;13.53;12.63;;;3.20;99.90;;;;;;5031596;28;20456;-70
2021/04/12 00:12:50;;;;;;;13.87;12.83;;;3.20;99.90;;;;;;5031419;28;20445;-70
2021/04/12 00:15:22;;;;;;;13.30;12.70;;;3.10;99.90;;;;;;5031596;28;20487;-70
2021/04/12 00:17:53;;;;;;;13.60;12.63;;;3.10;99.90;;;;;;5031369;28;20465;-70
2021/04/12 00:20:27;;;;;;;13.63;12.80;;;3.20;99.90;;;;;;5031375;28;20445;-70
2021/04/12 00:22:58;;;;;;;13.53;12.57;;;3.20;99.90;;;;;;5031353;28;20473;-70
2021/04/12 00:25:31;;;;;;;12.90;12.30;;;3.20;99.90;;;;;;5031427;28;20441;-70
2021/04/12 00:28:01;;;;;;;12.80;12.30;;;3.20;99.90;;;;;;5031316;28;20457;-70
2021/04/12 00:30:33;;;;;;;13.60;12.67;;;3.10;99.90;;;;;;5031313;28;20433;-70
2021/04/12 00:33:05;;;;;;;13.00;12.50;;;3.10;99.90;;;;;;5031227;28;20447;-70
2021/04/12 00:35:38;;;;;;;13.17;12.37;;;3.10;99.90;;;;;;5031165;28;20849;-70
2021/04/12 00:38:12;;;;;;;13.97;13.27;;;3.10;99.90;;;;;;5036960;23;21010;-68
2021/04/12 00:40:44;;;;;;;12.80;12.30;;;3.10;99.90;;;;;;5031040;28;20937;-67
2021/04/12 00:43:17;;;;;;;13.50;12.60;;;3.00;99.90;;;;;;5030974;28;20448;-68
2021/04/12 00:46:11;;;;;;;13.80;12.73;;;3.00;99.90;;;;;;5031356;28;20456;-68
2021/04/12 00:49:02;;;;;;;13.33;12.73;;;2.90;99.90;;;;;;5011648;28;20449;-68
2021/04/12 00:51:46;;;;;;;13.30;12.60;;;2.90;99.90;;;;;;5008031;28;20507;-68
2021/04/12 00:54:52;;;;;;;17.37;12.80;;;2.90;99.90;;;;;;5011190;28;20561;-68
2021/04/12 00:57:42;;;;;;;13.50;12.67;;;2.90;99.90;;;;;;5011353;28;20561;-69
2021/04/12 01:00:14;;;;;;;13.97;13.07;;;2.90;99.90;;;;;;5011366;28;20449;-68
2021/04/12 01:02:57;;;;;;;12.30;11.70;;;2.90;99.90;;;;;;5014417;28;20447;-68
2021/04/12 01:05:39;;;;;;;12.83;12.13;;;2.90;99.90;;;;;;5014838;28;20939;-69
2021/04/12 01:08:33;;;;;;;12.53;11.83;;;2.80;99.90;;;;;;5014874;28;20468;-69
2021/04/12 01:11:39;;;;;;;13.73;12.80;;;2.80;99.90;;;;;;5014788;28;20449;-69
2021/04/12 01:14:47;;;;;;;13.20;12.40;;;2.80;99.90;;;;;;5014550;28;20473;-69
2021/04/12 01:17:30;;;;;;;12.37;11.77;;;2.80;99.90;;;;;;5014652;28;20468;-68
2021/04/12 01:20:48;;;;;;;13.07;12.40;;;2.70;99.90;;;;;;5014715;28;20808;-68
2021/04/12 01:23:53;;;;;;;13.47;12.50;;;2.70;99.90;;;;;;5014502;28;20508;-68
2021/04/12 01:26:50;;;;;;;13.80;12.57;;;2.70;99.90;;;;;;5014522;28;20470;-68
2021/04/12 01:29:49;;;;;;;12.40;11.63;;;2.60;99.90;;;;;;5010160;28;20954;-68
2021/04/12 01:32:39;;;;;;;14.00;12.87;;;2.60;99.90;;;;;;5014516;28;20565;-68
2021/04/12 01:35:34;;;;;;;12.50;11.67;;;2.60;99.90;;;;;;5014320;28;21041;-69
2021/04/12 01:38:05;;;;;;;13.13;12.33;;;2.60;99.90;;;;;;5030073;28;20499;-68
2021/04/12 01:40:51;;;;;;;12.90;11.87;;;2.50;99.90;;;;;;5034020;28;20445;-68
2021/04/12 01:43:22;;;;;;;12.33;11.43;;;2.50;99.90;;;;;;5033763;28;20452;-68
2021/04/12 01:45:56;;;;;;;11.63;10.90;;;2.50;99.90;;;;;;5033975;28;20812;-69
2021/04/12 01:48:44;;;;;;;12.13;11.33;;;2.40;99.90;;;;;;5033922;28;20872;-68
2021/04/12 01:51:57;;;;;;;12.67;11.77;;;2.30;99.90;;;;;;5033921;28;20804;-69
2021/04/12 01:54:34;;;;;;;12.63;11.73;;;2.30;99.90;;;;;;4953171;28;20563;-68
2021/04/12 01:57:39;;;;;;;11.60;11.00;;;2.30;99.90;;;;;;5029133;28;20469;-68
2021/04/12 02:00:25;;;;;;;12.93;12.03;;;2.30;99.90;;;;;;5033884;28;20498;-69
2021/04/12 02:02:59;;;;;;;13.83;12.43;;;2.20;99.90;;;;;;5033510;28;20584;-68
2021/04/12 02:05:37;;;;;;;12.63;11.83;;;2.20;99.90;;;;;;5033703;28;20507;-68
2021/04/12 02:08:11;;;;;;;12.47;11.67;;;2.20;99.90;;;;;;5033410;28;20475;-69
2021/04/12 02:11:01;;;;;;;13.27;12.13;;;2.10;99.90;;;;;;5033527;28;20445;-68
2021/04/12 02:14:13;;;;;;;13.07;12.17;;;2.10;99.90;;;;;;5032414;28;20499;-69
2021/04/12 02:16:52;;;;;;;13.97;12.93;;;2.00;99.90;;;;;;5033288;28;20496;-68
2021/04/12 02:19:30;;;;;;;13.03;12.33;;;2.00;99.90;;;;;;5033378;28;20523;-67
2021/04/12 02:22:10;;;;;;;14.67;13.40;;;1.90;99.90;;;;;;5033323;28;20444;-68
2021/04/12 02:24:44;;;;;;;14.63;13.40;;;1.80;99.90;;;;;;5033072;28;20441;-69
2021/04/12 02:27:16;;;;;;;14.20;13.20;;;1.80;99.90;;;;;;5033110;28;20487;-68
2021/04/12 02:29:54;;;;;;;14.43;13.20;;;1.80;99.90;;;;;;5033121;28;20441;-69
2021/04/12 02:32:35;;;;;;;14.80;13.70;;;1.70;99.90;;;;;;5033117;28;20445;-69
2021/04/12 02:35:25;;;;;;;15.07;13.67;;;1.70;99.90;;;;;;5032938;28;20697;-69
2021/04/12 02:38:19;;;;;;;14.90;14.10;;;1.60;99.90;;;;;;5032836;28;20485;-68
2021/04/12 02:41:05;;;;;;;15.53;14.33;;;1.50;99.90;;;;;;5025249;28;20490;-69
2021/04/12 02:43:51;;;;;;;14.13;13.23;;;1.50;99.90;;;;;;5032761;28;20433;-69
2021/04/12 02:46:30;;;;;;;16.60;15.07;;;1.40;99.90;;;;;;5032802;28;20465;-69
2021/04/12 02:49:00;;;;;;;17.13;15.63;;;1.30;99.90;;;;;;5032916;28;20449;-68
2021/04/12 02:51:35;;;;;;;16.80;15.67;;;1.30;99.90;;;;;;5032981;28;20440;-67
2021/04/12 02:54:33;;;;;;;17.47;16.07;;;1.30;99.90;;;;;;5032553;28;20576;-68
2021/04/12 02:57:45;;;;;;;17.20;15.70;;;1.30;99.90;;;;;;5032601;28;20440;-69
2021/04/12 03:00:24;;;;;;;20.03;18.33;;;1.30;99.90;;;;;;4971656;28;20495;-69
2021/04/12 03:03:02;;;;;;;20.77;19.10;;;1.20;99.90;;;;;;5032311;28;20441;-69
2021/04/12 03:05:45;;;;;;;25.90;23.40;;;1.20;99.90;;;;;;5032560;28;20447;-69
2021/04/12 03:08:46;;;;;;;24.70;22.70;;;1.20;99.90;;;;;;5032356;28;20468;-68
2021/04/12 03:12:03;;;;;;;27.53;25.10;;;1.20;99.90;;;;;;5032457;28;20489;-69
2021/04/12 03:14:56;;;;;;;28.93;26.03;;;1.20;99.90;;;;;;4951704;29;20523;-69
2021/04/12 03:17:47;;;;;;;25.63;23.37;;;1.20;99.90;;;;;;4951800;28;20997;-68
2021/04/12 03:20:39;;;;;;;25.60;21.70;;;1.20;99.90;;;;;;5014941;28;20448;-68
2021/04/12 03:23:30;;;;;;;24.70;22.30;;;1.20;99.90;;;;;;5015185;28;20432;-69
2021/04/12 03:26:10;;;;;;;27.43;24.70;;;1.20;99.90;;;;;;5031808;28;20449;-68
2021/04/12 03:28:51;;;;;;;24.40;22.30;;;1.20;99.90;;;;;;5032059;28;20444;-68
2021/04/12 03:31:44;;;;;;;23.37;20.97;;;1.20;99.90;;;;;;5032068;28;20441;-67
2021/04/12 03:34:18;;;;;;;24.70;22.40;;;1.20;99.90;;;;;;5031754;28;20481;-68
2021/04/12 03:37:19;;;;;;;22.97;20.80;;;1.20;99.90;;;;;;5031802;28;20483;-68
2021/04/12 03:39:55;;;;;;;23.60;21.50;;;1.10;99.90;;;;;;5032022;28;20518;-67
2021/04/12 03:42:38;;;;;;;22.07;20.27;;;1.10;99.90;;;;;;5031967;28;20465;-67
2021/04/12 03:45:36;;;;;;;24.63;22.67;;;1.10;99.90;;;;;;5031875;28;20785;-69
2021/04/12 03:48:39;;;;;;;25.23;20.90;;;1.10;99.90;;;;;;4987718;28;20480;-69
2021/04/12 03:51:44;;;;;;;22.33;20.33;;;1.10;99.90;;;;;;5031769;28;20444;-67
2021/04/12 03:54:37;;;;;;;21.27;19.30;;;1.00;99.90;;;;;;5018032;28;20488;-68
2021/04/12 03:57:42;;;;;;;20.57;18.77;;;0.90;99.90;;;;;;5031741;28;20522;-68
2021/04/12 04:00:34;;;;;;;21.80;19.90;;;0.90;99.90;;;;;;5031693;28;20496;-67
2021/04/12 04:03:23;;;;;;;19.53;17.73;;;0.90;99.90;;;;;;5031559;28;21068;-67
2021/04/12 04:06:14;;;;;;;20.37;18.27;;;0.90;99.90;;;;;;5031710;28;20445;-68
2021/04/12 04:08:56;;;;;;;19.93;17.77;;;0.90;99.90;;;;;;5031620;28;20939;-69
2021/04/12 04:11:49;;;;;;;16.87;15.37;;;0.90;99.90;;;;;;5031553;28;20441;-68
2021/04/12 04:14:36;;;;;;;19.67;17.97;;;0.90;99.90;;;;;;5031156;28;20496;-68
2021/04/12 04:17:19;;;;;;;19.23;17.37;;;0.80;99.90;;;;;;5031432;28;21037;-68
2021/04/12 04:19:59;;;;;;;17.70;15.90;;;0.90;99.90;;;;;;5031550;28;20536;-68
2021/04/12 04:23:01;;;;;;;19.37;17.33;;;0.90;99.90;;;;;;5031572;28;20467;-68
2021/04/12 04:26:02;;;;;;;18.33;16.50;;;0.90;99.90;;;;;;5031431;28;20444;-68
2021/04/12 04:28:50;;;;;;;16.13;14.63;;;0.80;99.90;;;;;;5031359;28;20846;-67
2021/04/12 04:31:57;;;;;;;16.03;14.60;;;0.90;99.90;;;;;;5031240;28;20445;-68
2021/04/12 04:34:31;;;;;;;16.63;13.90;;;0.90;99.90;;;;;;4987513;28;20466;-68
2021/04/12 04:37:39;;;;;;;17.07;15.33;;;0.90;99.90;;;;;;5033308;28;20488;-68
2021/04/12 04:40:27;;;;;;;17.17;15.57;;;0.80;99.90;;;;;;5032564;28;20455;-68
2021/04/12 04:43:10;;;;;;;17.17;15.57;;;0.90;99.90;;;;;;5034886;28;20675;-68
2021/04/12 04:45:55;;;;;;;19.27;15.57;;;0.90;99.90;;;;;;5034968;28;20888;-69
2021/04/12 04:48:38;;;;;;;16.87;15.20;;;0.90;99.90;;;;;;5035022;28;20502;-67
2021/04/12 04:51:17;;;;;;;18.33;16.67;;;0.90;99.90;;;;;;5034846;28;20445;-69
2021/04/12 04:54:17;;;;;;;17.03;15.53;;;1.00;99.90;;;;;;5034765;28;20461;-69
2021/04/12 04:56:57;;;;;;;16.83;15.23;;;0.90;99.90;;;;;;5034539;28;20469;-67
2021/04/12 04:59:38;;;;;;;18.23;16.23;;;0.90;99.90;;;;;;5033583;28;20448;-67
2021/04/12 05:02:31;;;;;;;18.00;16.00;;;0.80;99.90;;;;;;5033330;28;20514;-67
2021/04/12 05:05:36;;;;;;;17.17;15.67;;;0.80;99.90;;;;;;5033202;28;20448;-67
2021/04/12 05:08:31;;;;;;;18.97;17.07;;;0.80;99.90;;;;;;4952591;29;20472;-67
2021/04/12 05:11:18;;;;;;;19.20;17.53;;;0.90;99.90;;;;;;4952534;29;20488;-67
2021/04/12 05:14:11;;;;;;;18.97;17.27;;;1.00;99.90;;;;;;5018064;28;20538;-67
2021/04/12 05:16:46;;;;;;;19.73;17.70;;;0.90;99.90;;;;;;5016373;28;20563;-67
2021/04/12 05:19:45;;;;;;;17.70;15.80;;;1.00;99.90;;;;;;5034369;28;20440;-67
2021/04/12 05:22:37;;;;;;;18.77;17.10;;;1.00;99.90;;;;;;5033942;28;20468;-67
2021/04/12 05:25:24;;;;;;;19.53;17.43;;;1.10;99.90;;;;;;5033911;28;20433;-67
2021/04/12 05:28:16;;;;;;;21.07;18.57;;;1.10;99.90;;;;;;5033995;28;20464;-67
2021/04/12 05:30:56;;;;;;;21.90;20.10;;;1.10;99.90;;;;;;5033973;28;20441;-67
2021/04/12 05:33:43;;;;;;;20.17;18.13;;;1.10;99.90;;;;;;5033836;28;20803;-68
2021/04/12 05:36:42;;;;;;;23.10;19.00;;;1.30;99.90;;;;;;5033681;28;20457;-68
2021/04/12 05:39:26;;;;;;;21.20;19.30;;;1.40;99.90;;;;;;5026123;28;20461;-67
2021/04/12 05:42:18;;;;;;;20.23;18.33;;;1.60;99.90;;;;;;5033901;28;20451;-68
2021/04/12 05:45:00;;;;;;;23.50;21.50;;;1.70;99.90;;;;;;5033536;28;20440;-68
2021/04/12 05:47:39;;;;;;;19.27;17.27;;;1.90;99.90;;;;;;5032641;28;20523;-68
2021/04/12 05:50:24;;;;;;;19.57;17.97;;;2.10;99.90;;;;;;5033586;28;20448;-68
2021/04/12 05:53:05;;;;;;;19.67;17.80;;;2.30;99.90;;;;;;5033486;28;20441;-68
2021/04/12 05:56:03;;;;;;;18.97;17.37;;;2.40;99.90;;;;;;5033471;28;20481;-67
2021/04/12 05:58:49;;;;;;;19.47;17.87;;;2.50;99.90;;;;;;5033226;28;20449;-67
2021/04/12 06:01:45;;;;;;;20.53;18.93;;;2.50;99.90;;;;;;5033654;28;20453;-67
2021/04/12 06:04:21;;;;;;;20.20;17.60;;;2.60;99.90;;;;;;5033193;28;20814;-68
2021/04/12 06:07:18;;;;;;;18.67;17.30;;;2.90;99.90;;;;;;5033399;28;20457;-68
2021/04/12 06:10:13;;;;;;;20.23;18.60;;;3.00;99.90;;;;;;5033157;28;20502;-67
2021/04/12 06:13:18;;;;;;;19.20;17.77;;;3.20;99.90;;;;;;5033121;28;20440;-67
2021/04/12 06:15:58;;;;;;;19.97;17.93;;;3.40;99.90;;;;;;5033133;28;20487;-67
2021/04/12 06:18:51;;;;;;;19.17;17.83;;;3.50;99.90;;;;;;5033162;28;20445;-68
2021/04/12 06:21:56;;;;;;;19.53;18.37;;;3.50;99.90;;;;;;5032942;28;20751;-68
2021/04/12 06:24:44;;;;;;;20.43;19.10;;;3.70;99.90;;;;;;5025848;28;20476;-67
2021/04/12 06:27:43;;;;;;;20.83;19.63;;;3.80;99.90;;;;;;5032817;28;20469;-67
2021/04/12 06:30:42;;;;;;;20.40;19.00;;;3.80;99.90;;;;;;5032857;28;20468;-67
2021/04/12 06:33:31;;;;;;;20.00;18.63;;;4.00;99.90;;;;;;5032642;28;20441;-67
2021/04/12 06:36:15;;;;;;;19.77;18.67;;;4.10;99.90;;;;;;5032680;28;20812;-68
2021/04/12 06:39:27;;;;;;;20.23;19.13;;;4.10;99.90;;;;;;5033313;28;20449;-67
2021/04/12 06:42:21;;;;;;;20.53;19.23;;;4.30;99.90;;;;;;5032797;28;20448;-68
2021/04/12 06:45:13;;;;;;;20.40;18.97;;;4.20;99.90;;;;;;5032544;28;20957;-68
2021/04/12 06:48:27;;;;;;;20.80;19.50;;;4.30;99.90;;;;;;5032676;28;20959;-67
2021/04/12 06:51:26;;;;;;;20.43;19.03;;;4.40;99.90;;;;;;4997366;28;20441;-67
2021/04/12 06:54:32;;;;;;;19.70;18.70;;;4.50;99.90;;;;;;5032219;28;20477;-67
2021/04/12 06:57:32;;;;;;;21.47;19.73;;;4.60;99.90;;;;;;5032297;28;20465;-67
2021/04/12 07:00:38;;;;;;;21.27;19.77;;;4.80;99.90;;;;;;5031949;28;20445;-67
2021/04/12 07:03:38;;;;;;;21.80;20.20;;;5.00;99.90;;;;;;5032067;28;20812;-68
2021/04/12 07:06:31;;;;;;;22.07;20.77;;;5.20;99.90;;;;;;5032257;28;20457;-67
2021/04/12 07:09:37;;;;;;;21.37;20.00;;;5.20;99.90;;;;;;5032023;28;20445;-67
2021/04/12 07:12:54;;;;;;;22.23;21.03;;;5.20;99.90;;;;;;5032080;28;20441;-67
2021/04/12 07:15:37;;;;;;;22.13;20.70;;;5.30;99.90;;;;;;5031838;28;20487;-67
2021/04/12 07:18:41;;;;;;;22.40;21.10;;;5.50;99.90;;;;;;5032015;28;20465;-67
2021/04/12 07:21:40;;;;;;;20.63;19.37;;;5.40;99.90;;;;;;5032080;28;20449;-67
2021/04/12 07:24:34;;;;;;;22.17;20.87;;;5.70;99.90;;;;;;5031550;28;20444;-68
2021/04/12 07:27:26;;;;;;;21.60;20.17;;;5.70;99.90;;;;;;5031816;28;20982;-68
2021/04/12 07:30:25;;;;;;;23.07;20.80;;;5.80;99.90;;;;;;5031798;28;20444;-68
2021/04/12 07:32:59;;;;;;;22.50;21.17;;;6.00;99.90;;;;;;5031704;28;20483;-67
2021/04/12 07:35:50;;;;;;;21.40;20.10;;;5.90;99.90;;;;;;5031637;28;20486;-67
2021/04/12 07:39:02;;;;;;;21.73;20.27;;;6.10;99.90;;;;;;5031482;28;20476;-67
2021/04/12 07:42:24;;;;;;;21.20;20.00;;;6.20;99.90;;;;;;5031691;28;20452;-67
2021/04/12 07:45:35;;;;;;;22.47;21.20;;;6.40;99.90;;;;;;4951143;29;20443;-67
2021/04/12 07:48:38;;;;;;;22.00;20.60;;;6.30;99.90;;;;;;4951015;29;20535;-67
2021/04/12 07:51:44;;;;;;;23.47;21.93;;;6.00;99.90;;;;;;5001822;28;20445;-67
2021/04/12 07:54:53;;;;;;;22.70;21.20;;;6.10;99.90;;;;;;5031017;28;21023;-68
2021/04/12 07:58:04;;;;;;;22.37;20.80;;;6.00;99.90;;;;;;5031171;28;20993;-67
2021/04/12 08:00:57;;;;;;;21.87;20.63;;;5.80;99.90;;;;;;5031317;28;20449;-68
2021/04/12 08:04:01;;;;;;;21.30;20.10;;;5.90;99.90;;;;;;5031237;28;20448;-67
2021/04/12 08:07:04;;;;;;;22.13;20.83;;;6.00;99.90;;;;;;5031300;28;20472;-67
2021/04/12 08:10:03;;;;;;;21.97;20.50;;;6.20;99.90;;;;;;5031349;28;20440;-68
2021/04/12 08:13:03;;;;;;;20.13;19.00;;;6.70;99.90;;;;;;5034667;28;20930;-67
2021/04/12 08:16:02;;;;;;;20.17;19.10;;;7.20;99.90;;;;;;5031704;28;20481;-67
2021/04/12 08:19:14;;;;;;;20.83;19.37;;;7.80;99.90;;;;;;5035170;28;20448;-67
2021/04/12 08:22:21;;;;;;;20.33;19.23;;;8.20;99.90;;;;;;5035294;28;20459;-68
2021/04/12 08:25:19;;;;;;;20.63;19.43;;;8.60;99.90;;;;;;4961351;28;20519;-68
2021/04/12 08:28:52;;;;;;;21.20;20.10;;;8.70;99.90;;;;;;5034972;28;20974;-67
2021/04/12 08:31:52;;;;;;;22.57;21.20;;;8.80;99.90;;;;;;5035098;28;20458;-68
2021/04/12 08:35:15;;;;;;;21.97;20.70;;;9.20;99.90;;;;;;5034727;28;20480;-67
2021/04/12 08:38:15;;;;;;;21.77;20.57;;;9.10;99.90;;;;;;5034783;28;20476;-67
2021/04/12 08:41:38;;;;;;;21.67;20.20;;;9.30;99.90;;;;;;5034900;28;20520;-68
2021/04/12 08:44:37;;;;;;;23.60;22.20;;;9.30;99.50;;;;;;5004684;28;20448;-68
2021/04/12 08:47:17;;;;;;;24.70;23.30;;;9.40;99.90;;;;;;5000854;28;21024;-68
2021/04/12 08:50:10;;;;;;;26.77;25.00;;;9.80;99.00;;;;;;5035113;28;20460;-68
2021/04/12 08:53:36;;;;;;;23.87;22.57;;;9.90;98.80;;;;;;5034501;28;20445;-68
2021/04/12 08:56:27;;;;;;;24.40;23.10;;;10.00;96.80;;;;;;4933816;28;20604;-68
2021/04/12 08:59:26;;;;;;;23.70;22.40;;;9.80;98.10;;;;;;4954130;29;20479;-68
2021/04/12 09:02:22;;;;;;;22.47;21.37;;;9.70;97.60;;;;;;4988143;28;20445;-68
2021/04/12 09:05:19;;;;;;;24.60;23.20;;;9.80;97.50;;;;;;5034434;28;20814;-68
2021/04/12 09:08:09;;;;;;;24.87;23.67;;;9.60;97.50;;;;;;5034497;28;20465;-68
2021/04/12 09:10:56;;;;;;;23.60;22.40;;;9.70;98.30;;;;;;5034577;28;20449;-67
2021/04/12 09:13:56;;;;;;;24.30;22.90;;;9.30;98.70;;;;;;5034117;28;20449;-67
2021/04/12 09:16:30;;;;;;;25.93;24.10;;;9.20;98.90;;;;;;5034194;28;20453;-68
2021/04/12 09:19:49;;;;;;;26.37;24.87;;;9.00;99.50;;;;;;5034253;28;20452;-67
2021/04/12 09:23:02;;;;;;;23.37;22.20;;;8.50;99.70;;;;;;5033887;28;20445;-67
2021/04/12 09:25:48;;;;;;;22.97;21.67;;;8.20;99.90;;;;;;5034069;28;20444;-67
2021/04/12 09:28:32;;;;;;;23.17;21.80;;;8.40;99.90;;;;;;5033913;28;20465;-68
2021/04/12 09:31:32;;;;;;;20.30;19.30;;;8.50;99.90;;;;;;5034039;28;20448;-68
2021/04/12 09:34:35;;;;;;;20.67;19.67;;;8.80;99.90;;;;;;5033588;28;20488;-67
2021/04/12 09:37:34;;;;;;;19.97;19.03;;;9.20;98.10;;;;;;5033791;28;20978;-68
2021/04/12 09:40:35;;;;;;;20.97;19.97;;;9.20;97.90;;;;;;5034070;28;20795;-67
2021/04/12 09:43:35;;;;;;;21.33;20.10;;;8.90;96.60;;;;;;5033779;28;20536;-67
2021/04/12 09:46:44;;;;;;;19.47;18.60;;;9.10;96.20;;;;;;4960259;28;20467;-68
2021/04/12 09:49:29;;;;;;;18.60;17.60;;;9.10;96.00;;;;;;5034055;28;20686;-67
2021/04/12 09:52:09;;;;;;;17.17;16.40;;;9.20;94.20;;;;;;5033690;28;20452;-67
2021/04/12 09:55:00;;;;;;;19.33;18.43;;;8.60;93.20;;;;;;5033294;28;20484;-67
2021/04/12 09:58:02;;;;;;;18.30;17.50;;;8.50;94.40;;;;;;5033399;28;20457;-67
2021/04/12 10:00:47;;;;;;;18.30;17.60;;;9.40;94.80;;;;;;5033435;28;20437;-67
2021/04/12 10:03:47;;;;;;;18.37;17.47;;;9.20;91.80;;;;;;5032725;28;20464;-67
2021/04/12 10:06:38;;;;;;;18.37;17.37;;;8.80;88.00;;;;;;5033344;28;20879;-67
2021/04/12 10:09:38;;;;;;;20.33;18.80;;;8.60;90.70;;;;;;5002165;28;20532;-67
2021/04/12 10:12:31;;;;;;;17.60;16.80;;;8.90;90.80;;;;;;5033496;28;20499;-68
2021/04/12 10:15:05;;;;;;;19.00;18.20;;;9.10;85.50;;;;;;5032961;28;20476;-67
2021/04/12 10:17:39;;;;;;;18.10;17.30;;;9.40;82.00;;;;;;5033147;28;20472;-67
2021/04/12 10:20:13;;;;;;;18.00;17.30;;;9.50;82.60;;;;;;5033339;28;20495;-67
2021/04/12 10:22:49;;;;;;;18.77;17.77;;;9.60;80.10;;;;;;5032879;28;20464;-68
2021/04/12 10:25:21;;;;;;;18.13;17.43;;;9.70;74.30;;;;;;5032992;28;20448;-68
2021/04/12 10:27:51;;;;;;;19.87;19.07;;;10.20;70.30;;;;;;5033206;28;20461;-67
2021/04/12 10:30:23;;;;;;;19.70;18.77;;;11.40;67.70;;;;;;5032948;28;20519;-67
2021/04/12 10:32:53;;;;;;;19.50;18.80;;;12.10;61.90;;;;;;5032806;28;20468;-68
2021/04/12 10:35:22;;;;;;;19.40;18.70;;;12.50;56.10;;;;;;5032069;28;20484;-67
2021/04/12 10:38:02;;;;;;;20.00;19.20;;;12.10;52.20;;;;;;5032969;28;20570;-67
2021/04/12 10:40:32;;;;;;;19.50;18.60;;;11.80;53.20;;;;;;5032823;28;20456;-67
2021/04/12 10:43:04;;;;;;;19.87;18.87;;;11.10;54.20;;;;;;5032582;28;20448;-67
2021/04/12 10:45:33;;;;;;;20.17;19.20;;;10.50;54.40;;;;;;5032679;28;20447;-68
2021/04/12 10:48:08;;;;;;;15.00;14.50;;;9.60;57.80;;;;;;5032444;28;20460;-68
2021/04/12 10:50:52;;;;;;;12.97;12.33;;;8.10;72.50;;;;;;5032541;28;20445;-66
2021/04/12 10:53:42;;;;;;;14.93;14.17;;;7.00;99.90;;;;;;5032293;28;20453;-67
2021/04/12 10:56:13;;;;;;;13.70;13.20;;;6.70;99.90;;;;;;5032403;28;20997;-67
2021/04/12 10:59:10;;;;;;;13.03;12.63;;;6.60;99.90;;;;;;5032415;28;20861;-67
2021/04/12 11:01:46;;;;;;;12.83;12.43;;;6.90;99.90;;;;;;4988918;28;20460;-67
2021/04/12 11:04:30;;;;;;;14.00;13.50;;;7.30;99.90;;;;;;5032014;28;20450;-67
2021/04/12 11:07:13;;;;;;;17.67;17.00;;;7.20;99.90;;;;;;5032469;28;20481;-66
2021/04/12 11:10:01;;;;;;;18.50;17.90;;;7.30;99.90;;;;;;5032154;28;20452;-67
2021/04/12 11:12:45;;;;;;;19.43;18.33;;;7.90;99.90;;;;;;5032067;28;20441;-66
2021/04/12 11:15:21;;;;;;;18.40;17.80;;;8.80;99.90;;;;;;5031726;28;20481;-66
2021/04/12 11:17:57;;;;;;;17.60;17.10;;;8.20;99.90;;;;;;5031926;28;20881;-66
2021/04/12 11:20:32;;;;;;;17.80;16.67;;;7.70;99.90;;;;;;5031874;28;20452;-65
2021/04/12 11:23:00;;;;;;;16.43;15.93;;;6.80;99.90;;;;;;5031827;28;20444;-67
2021/04/12 11:25:39;;;;;;;16.43;15.83;;;6.20;99.90;;;;;;5031671;28;20444;-67
2021/04/12 11:28:14;;;;;;;17.67;17.07;;;5.60;99.90;;;;;;5031663;28;20823;-66
2021/04/12 11:30:51;;;;;;;16.63;16.10;;;5.50;99.90;;;;;;5031722;28;20449;-67
2021/04/12 11:33:36;;;;;;;16.50;15.90;;;5.30;99.90;;;;;;5031465;28;20453;-66
2021/04/12 11:36:14;;;;;;;17.27;16.47;;;5.20;99.90;;;;;;5031575;28;20484;-66
2021/04/12 11:38:46;;;;;;;17.47;16.37;;;5.30;99.90;;;;;;5031724;28;20830;-66
2021/04/12 11:41:15;;;;;;;17.23;16.53;;;5.50;99.90;;;;;;5031622;28;20452;-66
2021/04/12 11:43:55;;;;;;;17.80;16.70;;;5.80;99.90;;;;;;5031425;28;20453;-66
2021/04/12 11:46:34;;;;;;;17.20;16.30;;;6.20;99.90;;;;;;5031506;28;20461;-66
2021/04/12 11:49:09;;;;;;;16.70;16.10;;;6.80;99.90;;;;;;5031593;28;20659;-66
2021/04/12 11:51:48;;;;;;;17.53;16.73;;;7.00;99.90;;;;;;5031513;28;20448;-67
2021/04/12 11:54:18;;;;;;;19.10;18.00;;;7.20;99.90;;;;;;5031049;28;20849;-67
2021/04/12 11:56:49;;;;;;;19.50;18.50;;;6.90;99.50;;;;;;5031432;28;20472;-67
2021/04/12 11:59:38;;;;;;;18.63;18.03;;;6.90;99.50;;;;;;5031386;28;20452;-67
2021/04/12 12:02:18;;;;;;;19.83;19.03;;;7.00;98.70;;;;;;5031345;28;20444;-66
2021/04/12 12:04:51;;;;;;;21.33;20.47;;;10.60;99.40;;;;;;5031067;28;20480;-66
2021/04/12 12:07:30;;;;;;;22.30;21.40;;;15.70;67.30;;;;;;5031245;28;20460;-67
2021/04/12 12:10:21;;;;;;;22.73;21.63;;;17.80;50.70;;;;;;5031081;28;20444;-67
2021/04/12 12:12:57;;;;;;;21.50;20.70;;;19.80;45.50;;;;;;5017725;28;20460;-67
2021/04/12 12:15:32;;;;;;;21.53;20.73;;;17.90;37.20;;;;;;5031011;28;20492;-67
2021/04/12 12:18:04;;;;;;;21.73;20.90;;;14.40;39.50;;;;;;5031010;28;20818;-67
2021/04/12 12:20:38;;;;;;;21.50;20.50;;;11.90;44.50;;;;;;5031178;28;20458;-66
2021/04/12 12:23:22;;;;;;;21.33;20.40;;;10.30;48.50;;;;;;5031124;28;20448;-67
2021/04/12 12:25:52;;;;;;;21.50;20.60;;;9.60;52.60;;;;;;5031209;28;20445;-67
2021/04/12 12:28:36;;;;;;;20.40;19.60;;;9.20;55.90;;;;;;5031029;28;20552;-67
2021/04/12 12:31:30;;;;;;;20.23;19.23;;;8.40;59.60;;;;;;5030892;28;20452;-67
2021/04/12 12:34:09;;;;;;;20.43;19.63;;;7.60;72.80;;;;;;5031073;28;20453;-67
2021/04/12 12:36:44;;;;;;;20.10;19.30;;;7.60;96.60;;;;;;5030807;28;20477;-67
2021/04/12 12:39:17;;;;;;;20.43;19.63;;;7.00;99.90;;;;;;5031633;28;20461;-67
2021/04/12 12:41:46;;;;;;;21.10;20.00;;;6.70;99.90;;;;;;5031072;28;20448;-66
2021/04/12 12:44:14;;;;;;;21.47;20.47;;;6.40;99.90;;;;;;5030781;28;20448;-66
2021/04/12 12:46:43;;;;;;;20.83;19.83;;;6.40;99.90;;;;;;5030798;28;20468;-67
2021/04/12 12:49:16;;;;;;;20.40;19.23;;;6.50;99.90;;;;;;5030889;28;20445;-68
2021/04/12 12:51:50;;;;;;;20.93;19.70;;;6.80;99.90;;;;;;5030700;28;20455;-67
2021/04/12 12:54:26;;;;;;;19.50;18.60;;;7.00;99.90;;;;;;5030740;28;20455;-67
2021/04/12 12:57:00;;;;;;;18.83;18.03;;;7.20;99.90;;;;;;5031343;28;21005;-67
2021/04/12 12:59:28;;;;;;;18.77;17.90;;;7.30;99.90;;;;;;5034616;28;20451;-67
2021/04/12 13:01:56;;;;;;;19.03;18.20;;;7.70;99.90;;;;;;5034470;28;20502;-66
2021/04/12 13:04:27;;;;;;;22.00;20.37;;;8.20;99.90;;;;;;5034141;28;20738;-66
2021/04/12 13:06:56;;;;;;;19.70;18.90;;;10.00;99.90;;;;;;5034566;28;20476;-68
2021/04/12 13:09:28;;;;;;;20.83;20.13;;;12.60;99.90;;;;;;5034455;28;20448;-68
2021/04/12 13:11:56;;;;;;;21.20;20.40;;;17.10;89.90;;;;;;5034436;28;20453;-67
2021/04/12 13:14:37;;;;;;;23.03;21.50;;;16.60;67.70;;;;;;5034051;28;20563;-67
2021/04/12 13:17:26;;;;;;;21.93;20.93;;;15.00;61.80;;;;;;5034252;28;20465;-67
2021/04/12 13:19:56;;;;;;;22.30;21.23;;;13.10;68.50;;;;;;5034347;28;20445;-66
2021/04/12 13:22:27;;;;;;;23.13;21.70;;;12.70;71.60;;;;;;5034260;28;20441;-67
2021/04/12 13:25:08;;;;;;;21.37;20.57;;;12.80;75.10;;;;;;5034042;28;20502;-68
2021/04/12 13:27:34;;;;;;;22.50;21.30;;;14.50;74.00;;;;;;5033853;28;20496;-68
2021/04/12 13:30:06;;;;;;;21.77;20.77;;;13.80;69.50;;;;;;5034017;28;20445;-67
2021/04/12 13:32:36;;;;;;;21.70;20.80;;;13.70;70.10;;;;;;5033994;28;20441;-68
2021/04/12 13:35:08;;;;;;;21.27;20.47;;;15.40;69.20;;;;;;5033695;28;20550;-67
2021/04/12 13:37:37;;;;;;;22.00;21.10;;;16.40;64.00;;;;;;5032967;28;20473;-68
2021/04/12 13:40:08;;;;;;;21.40;20.60;;;17.60;54.20;;;;;;5032490;28;20452;-67
2021/04/12 13:42:38;;;;;;;22.37;21.47;;;17.30;56.30;;;;;;5032658;28;20477;-67
2021/04/12 13:45:08;;;;;;;23.40;22.50;;;23.70;51.90;;;;;;5032474;28;20804;-67
2021/04/12 13:47:42;;;;;;;22.10;21.20;;;22.80;41.80;;;;;;5032704;28;20465;-67
2021/04/12 13:50:15;;;;;;;22.43;21.53;;;19.40;39.90;;;;;;5032742;28;20937;-67
2021/04/12 13:52:47;;;;;;;22.50;21.60;;;16.50;44.40;;;;;;5032314;28;20451;-67
2021/04/12 13:55:18;;;;;;;23.37;22.47;;;19.00;47.10;;;;;;5032516;28;20483;-67
2021/04/12 13:57:48;;;;;;;23.30;22.40;;;22.80;42.00;;;;;;5032506;28;20465;-68
2021/04/12 14:00:21;;;;;;;23.60;22.50;;;25.50;37.10;;;;;;5032611;28;20452;-67
2021/04/12 14:02:55;;;;;;;23.70;22.87;;;28.40;32.20;;;;;;5032172;28;20445;-68
2021/04/12 14:05:26;;;;;;;22.17;21.40;;;29.90;28.50;;;;;;5032317;28;20444;-67
2021/04/12 14:07:59;;;;;;;22.30;21.50;;;30.10;26.50;;;;;;5032060;28;20559;-67
2021/04/12 14:10:29;;;;;;;21.83;21.03;;;25.70;26.10;;;;;;5031549;28;20448;-68
2021/04/12 14:12:59;;;;;;;21.30;20.60;;;21.70;29.10;;;;;;5032025;28;20476;-67